Latest Weather Observations for Inverell RS

IDN60801

Issued at 9:33 pm EST Wednesday 27 July 2016 (issued every 30 minutes, with the page automatically refreshed every 10 minutes)

About weather observations | Map of weather stations | Latest weather observations for NSW | Other Formats
Station Details ID: 056018 Name: INVERELL RESEARCH CENTRE Lat: -29.78 Lon: 151.08 Height: 664.0 m
Data from the previous 72 hours. | See also: Recent months at Inverell RS
Date/Time
EST
Temp
°C
App
Temp
°C
Dew
Point
°C
Rel
Hum
%
Delta-T
°C
Wind Press
QNH
hPa
Press
MSL
hPa
Rain since
9am
mm
Dir  Spd
km/h
Gust
km/h
Spd
kts
Gust
kts
27/09:30pm 8.2 6.8 3.5 72 2.1 CALM 0 0 0 0 1023.0 - 0.0
27/09:00pm 7.0 5.5 2.8 74 1.8 CALM 0 0 0 0 1022.8 1023.4 0.0
27/08:30pm 7.7 6.2 2.9 71 2.1 CALM 0 4 0 2 1022.5 - 0.0
27/08:00pm 7.4 4.5 2.8 72 2.0 SE 7 9 4 5 1022.4 - 0.0
27/07:30pm 7.6 4.7 2.5 70 2.2 SE 7 11 4 6 1021.9 - 0.0
27/07:00pm 9.0 6.3 2.9 65 2.7 NW 6 9 3 5 1021.5 - 0.0
27/06:30pm 9.8 6.4 2.0 58 3.4 NW 9 11 5 6 1021.1 - 0.0
27/06:00pm 10.7 7.8 1.5 53 4.0 NW 6 15 3 8 1020.8 1021.4 0.0
27/05:30pm 11.2 7.4 1.9 52 4.1 NW 11 17 6 9 1020.4 - 0.0
27/05:00pm 12.3 9.3 1.7 48 4.7 W 7 13 4 7 1020.1 - 0.0
27/04:30pm 13.4 9.9 1.2 43 5.4 WNW 9 17 5 9 1019.6 - 0.0
27/04:00pm 13.5 9.6 1.4 43 5.4 WNW 11 17 6 9 1019.5 - 0.0
27/03:30pm 14.0 9.7 0.9 41 5.8 WNW 13 22 7 12 1019.2 - 0.0
27/03:00pm 13.8 9.5 0.9 41 5.7 NNW 13 20 7 11 1019.0 1019.5 0.0
27/02:30pm 13.8 8.7 0.6 40 5.8 WNW 17 35 9 19 1018.8 - 0.0
27/02:00pm 14.3 9.8 -0.2 37 6.3 W 13 32 7 17 1018.8 - 0.0
27/01:30pm 13.8 9.1 0.6 40 5.8 WNW 15 24 8 13 1019.0 - 0.0
27/01:00pm 14.2 9.5 1.2 41 5.8 WSW 15 28 8 15 1019.2 - 0.0
27/12:30pm 13.1 8.8 1.1 44 5.3 WSW 13 20 7 11 1019.6 - 0.0
27/12:00pm 13.7 8.4 2.0 45 5.3 NW 19 30 10 16 1019.9 1020.5 0.0
27/11:30am 12.4 7.4 1.3 46 4.9 WNW 17 28 9 15 1020.2 - 0.0
27/11:00am 12.5 8.3 1.7 47 4.8 W 13 26 7 14 1020.4 - 0.0
27/10:30am 12.5 8.8 2.3 50 4.6 W 11 19 6 10 1020.8 - 0.0
27/10:00am 10.4 7.7 3.8 63 3.0 E 7 9 4 5 1021.0 - 0.0
27/09:30am 8.8 6.1 3.7 70 2.3 E 7 9 4 5 1021.1 - 0.0
27/09:00am 6.7 5.3 3.8 82 1.3 CALM 0 0 0 0 1021.1 1021.7 0.0
27/08:30am 5.8 4.3 3.0 82 1.2 CALM 0 0 0 0 1021.3 - 0.0
27/08:00am 5.5 2.9 3.2 85 1.0 ESE 6 7 3 4 1020.8 - 0.0
27/07:30am 5.1 3.3 3.2 87 0.8 SSE 2 6 1 3 1020.3 - 0.0
27/07:00am 3.3 0.5 2.1 92 0.5 S 6 7 3 4 1020.2 - 0.0
27/06:30am 3.0 0.0 2.3 95 0.3 S 7 9 4 5 1020.2 - 0.0
27/06:00am 3.2 1.6 2.2 93 0.4 CALM 0 0 0 0 1019.8 1020.4 0.0
27/05:30am 3.0 1.4 2.3 95 0.3 CALM 0 0 0 0 1019.6 - 0.0
27/05:00am 3.2 1.2 2.5 95 0.3 S 2 7 1 4 1019.3 - 0.0
27/04:30am 3.4 0.4 2.2 92 0.5 SW 7 7 4 4 1019.1 - 0.0
27/04:00am 4.7 3.1 2.3 84 1.0 CALM 0 0 0 0 1018.4 - 0.0
27/03:30am 6.0 3.3 2.5 78 1.5 SW 6 9 3 5 1019.1 - 0.0
27/03:00am 3.9 1.2 2.5 91 0.6 WNW 6 7 3 4 1019.0 1019.5 0.0
27/02:30am 4.5 2.6 2.6 87 0.8 SSE 2 9 1 5 1018.7 - 0.0
27/02:00am 5.1 3.5 2.5 83 1.1 CALM 0 0 0 0 1019.7 - 0.0
27/01:30am 4.8 1.9 2.7 86 0.9 SSE 7 9 4 5 1019.1 - 0.0
27/01:00am 5.0 2.3 2.9 86 0.9 ESE 6 7 3 4 1019.4 - 0.0
27/12:30am 5.4 3.5 2.8 83 1.1 S 2 6 1 3 1019.4 - 0.0
27/12:00am 5.5 2.8 2.9 83 1.1 S 6 9 3 5 1019.4 1020.0 0.0
 
Date/Time
EST
Temp
°C
App
Temp
°C
Dew
Point
°C
Rel
Hum
%
Delta-T
°C
Wind Press
QNH
hPa
Press
MSL
hPa
Rain since
9am
mm
Dir  Spd
km/h
Gust
km/h
Spd
kts
Gust
kts
26/11:30pm 5.9 4.4 2.9 81 1.3 CALM 0 0 0 0 1019.7 - 0.0
26/11:00pm 6.0 4.4 2.7 79 1.4 CALM 0 0 0 0 1019.5 - 0.0
26/10:30pm 6.4 4.9 2.9 78 1.5 CALM 0 4 0 2 1019.7 - 0.0
26/10:00pm 6.6 4.7 2.9 77 1.6 SW 2 7 1 4 1019.5 - 0.0
26/09:30pm 6.6 3.7 2.7 76 1.7 S 7 9 4 5 1019.5 - 0.0
26/09:00pm 7.0 4.3 2.9 75 1.8 SE 6 9 3 5 1019.1 1019.6 0.0
26/08:30pm 8.0 4.8 3.3 72 2.1 NW 9 17 5 9 1019.4 - 0.0
26/08:00pm 7.9 4.7 2.9 70 2.2 NW 9 11 5 6 1019.0 - 0.0
26/07:30pm 9.4 5.8 2.9 64 2.9 W 11 15 6 8 1018.7 - 0.0
26/07:00pm 9.6 6.3 2.3 60 3.2 W 9 13 5 7 1018.8 - 0.0
26/06:30pm 9.2 5.7 1.2 57 3.4 W 9 13 5 7 1018.4 - 0.0
26/06:00pm 9.2 5.8 2.1 61 3.1 W 9 11 5 6 1018.2 1018.8 0.0
26/05:30pm 9.5 6.6 2.7 62 3.0 SW 7 9 4 5 1017.9 - 0.0
26/05:00pm 10.7 8.0 2.4 56 3.7 SW 6 9 3 5 1017.7 - 0.0
26/04:30pm 11.8 8.9 1.3 48 4.6 W 6 9 3 5 1017.7 - 0.0
26/04:00pm 12.4 9.0 -0.3 41 5.4 W 7 11 4 6 1017.7 - 0.0
26/03:30pm 12.9 9.1 -0.8 39 5.8 WNW 9 13 5 7 1017.6 - 0.0
26/03:00pm 13.7 9.5 -1.2 35 6.3 NW 11 15 6 8 1017.6 1018.1 0.0
26/02:30pm 14.3 10.4 -1.3 34 6.6 W 9 15 5 8 1017.6 - 0.0
26/02:00pm 14.1 9.9 -3.5 29 7.1 WSW 9 15 5 8 1017.8 - 0.0
26/01:30pm 14.0 10.0 -2.5 32 6.8 WSW 9 15 5 8 1018.0 - 0.0
26/01:00pm 14.6 10.8 -0.4 35 6.5 NW 9 15 5 8 1018.3 - 0.0
26/12:30pm 13.0 9.6 -0.3 40 5.7 SW 7 11 4 6 1018.7 - 0.0
26/12:00pm 12.7 9.0 -0.2 41 5.5 W 9 17 5 9 1019.2 1019.7 0.0
26/11:30am 12.0 7.9 -0.3 42 5.2 SW 11 19 6 10 1019.8 - 0.0
26/11:00am 11.1 6.9 -0.7 44 4.9 SW 11 19 6 10 1020.0 - 0.0
26/10:30am 10.4 6.5 1.1 52 4.0 SW 11 19 6 10 1020.3 - 0.0
26/10:00am 9.6 5.4 1.5 57 3.5 SSW 13 22 7 12 1020.7 - 0.0
26/09:30am 8.2 3.3 1.9 64 2.7 S 17 26 9 14 1020.6 - 0.0
26/09:00am 7.3 3.2 2.2 70 2.2 S 13 19 7 10 1020.8 1021.4 0.0
26/08:30am 5.3 2.3 1.9 79 1.4 SE 7 9 4 5 1020.9 - 0.0
26/08:00am 3.8 0.9 1.3 84 1.0 SE 6 7 3 4 1021.0 - 0.0
26/07:30am 1.1 -2.0 0.3 94 0.3 SSE 6 9 3 5 1020.8 - 0.0
26/07:00am -0.2 - - - - CALM 0 0 0 0 1020.7 - 0.0
26/06:30am -0.4 - - - - CALM 0 4 0 2 1020.4 - 0.0
26/06:00am -1.0 - - - - SSW 4 7 2 4 1020.1 1020.7 0.0
26/05:30am 0.3 - - - - WSW 7 9 4 5 1020.0 - 0.0
26/05:00am 0.7 - - - - SSW 6 7 3 4 1019.7 - 0.0
26/04:30am 1.6 -0.4 -0.2 88 0.7 CALM 0 0 0 0 1019.5 - 0.0
26/04:00am 1.5 -0.9 -0.6 86 0.8 S 2 7 1 4 1019.5 - 0.0
26/03:30am 0.5 - - - - S 4 7 2 4 1019.7 - 0.0
26/03:00am 1.6 -1.5 0.0 89 0.6 SSE 6 7 3 4 1019.8 1020.4 0.0
26/02:30am 1.1 -0.9 -0.2 91 0.5 CALM 0 0 0 0 1020.1 - 0.0
26/02:00am 1.5 -0.5 0.2 91 0.5 CALM 0 0 0 0 1019.9 - 0.0
26/01:30am 3.0 0.3 0.5 84 1.0 SSE 4 7 2 4 1020.2 - 0.0
26/01:00am 2.4 -0.6 0.6 88 0.7 S 6 9 3 5 1020.2 - 0.0
26/12:30am 2.4 0.1 0.3 86 0.8 SSE 2 7 1 4 1020.1 - 0.0
26/12:00am 1.8 -0.9 0.0 88 0.7 ESE 4 9 2 5 1019.9 1020.5 0.0
 
Date/Time
EST
Temp
°C
App
Temp
°C
Dew
Point
°C
Rel
Hum
%
Delta-T
°C
Wind Press
QNH
hPa
Press
MSL
hPa
Rain since
9am
mm
Dir  Spd
km/h
Gust
km/h
Spd
kts
Gust
kts
25/11:30pm 2.6 0.6 0.0 83 1.0 CALM 0 0 0 0 1020.0 - 0.0
25/11:00pm 4.5 2.5 -0.1 72 1.8 CALM 0 6 0 3 1020.0 - 0.0
25/10:30pm 5.3 3.2 -0.6 66 2.3 CALM 0 0 0 0 1019.9 - 0.0
25/10:00pm 5.0 2.6 -0.3 68 2.1 WNW 2 7 1 4 1019.8 - 0.0
25/09:30pm 5.6 2.9 0.1 68 2.2 WSW 4 7 2 4 1019.8 - 0.0
25/09:00pm 5.0 3.0 0.2 71 1.9 CALM 0 4 0 2 1019.6 1020.2 0.0
25/08:30pm 5.6 3.6 0.1 68 2.2 CALM 0 0 0 0 1019.6 - 0.0
25/08:00pm 5.7 3.0 0.5 69 2.1 S 4 9 2 5 1019.5 - 0.0
25/07:30pm 7.3 4.0 -0.1 59 3.0 NW 7 9 4 5 1019.6 - 0.0
25/07:00pm 8.1 4.4 0.1 57 3.3 NW 9 13 5 7 1019.3 - 0.0
25/06:30pm 8.2 4.5 0.2 57 3.3 NW 9 17 5 9 1019.0 - 0.0
25/06:00pm 8.5 4.8 0.0 55 3.5 WNW 9 15 5 8 1018.5 1019.1 0.0
25/05:30pm 9.2 5.9 0.1 53 3.8 NW 7 13 4 7 1018.3 - 0.0
25/05:00pm 10.7 6.5 -0.9 44 4.8 WNW 11 19 6 10 1018.0 - 0.0
25/04:30pm 11.8 7.2 -1.2 40 5.4 WNW 13 22 7 12 1017.8 - 0.0
25/04:00pm 12.9 9.1 -0.5 39 5.7 WNW 9 15 5 8 1017.8 - 0.0
25/03:30pm 12.6 8.3 1.0 45 5.1 WNW 13 22 7 12 1017.6 - 0.0
25/03:00pm 12.9 8.6 1.1 44 5.2 WNW 13 20 7 11 1017.5 1018.0 0.0
25/02:30pm 13.2 8.2 1.5 45 5.2 NW 17 28 9 15 1017.6 - 0.0
25/02:00pm 12.8 7.0 0.0 41 5.5 NNW 20 30 11 16 1017.7 - 0.0
25/01:30pm 13.3 8.7 1.7 45 5.2 WNW 15 35 8 19 1017.7 - 0.0
25/01:00pm 13.0 7.8 0.0 41 5.6 WNW 17 28 9 15 1018.1 - 0.0
25/12:30pm 13.3 8.1 0.1 40 5.7 W 17 30 9 16 1018.4 - 0.0
25/12:00pm 12.6 7.2 -1.0 39 5.7 W 17 32 9 17 1018.7 1019.3 0.0
25/11:30am 12.4 7.5 -0.3 41 5.4 W 15 28 8 15 1019.2 - 0.0
25/11:00am 12.2 8.4 1.6 48 4.7 WSW 11 19 6 10 1019.4 - 0.0
25/10:30am 11.5 7.8 2.6 54 4.0 SW 11 17 6 9 1019.6 - 0.0
25/10:00am 11.1 8.0 3.4 59 3.5 NW 9 15 5 8 1019.6 - 0.0
25/09:30am 9.9 6.7 3.2 63 3.0 WNW 9 19 5 10 1019.8 - 0.0
25/09:00am 7.7 4.8 2.4 69 2.3 ESE 7 9 4 5 1019.8 1020.4 0.0
25/08:30am 5.2 1.8 2.1 80 1.3 SE 9 9 5 5 1019.5 - 0.0
25/08:00am 4.6 1.8 2.2 84 1.0 SSE 6 7 3 4 1019.1 - 0.0
25/07:30am 2.8 -0.2 1.8 93 0.4 SSE 7 7 4 4 1018.7 - 0.0
25/07:00am 2.1 0.2 0.8 91 0.5 CALM 0 9 0 5 1018.7 - 0.0
25/06:30am 2.1 0.2 0.8 91 0.5 CALM 0 0 0 0 1018.3 - 0.0
25/06:00am 2.1 0.2 0.8 91 0.5 CALM 0 0 0 0 1018.1 1018.7 0.0
25/05:30am 2.9 1.1 1.1 88 0.7 CALM 0 0 0 0 1017.8 - 0.0
25/05:00am 2.8 -0.2 0.8 87 0.8 S 6 9 3 5 1017.6 - 0.0
25/04:30am 1.8 -1.4 0.8 93 0.4 S 7 9 4 5 1017.5 - 0.0
25/04:00am 1.6 -1.6 0.8 94 0.3 SSE 7 7 4 4 1017.4 - 0.0
25/03:30am 1.9 -0.7 1.1 94 0.3 SSE 4 9 2 5 1017.4 - 0.0
25/03:00am 1.7 -1.5 0.9 94 0.3 SSE 7 9 4 5 1017.5 1018.0 0.0
25/02:30am 1.7 -1.3 0.9 94 0.3 SSE 6 7 3 4 1017.7 - 0.0
25/02:00am 2.0 0.2 1.0 93 0.4 CALM 0 0 0 0 1017.8 - 0.0
25/01:30am 2.7 -0.2 1.5 92 0.5 S 6 7 3 4 1018.0 - 0.0
25/01:00am 2.6 0.1 1.6 93 0.4 SSE 4 9 2 5 1018.1 - 0.0
25/12:30am 3.1 0.0 1.6 90 0.6 S 7 9 4 5 1018.1 - 0.0
25/12:00am 2.9 -0.1 1.7 92 0.5 SSE 7 9 4 5 1018.0 1018.5 0.0
 
Date/Time
EST
Temp
°C
App
Temp
°C
Dew
Point
°C
Rel
Hum
%
Delta-T
°C
Wind Press
QNH
hPa
Press
MSL
hPa
Rain since
9am
mm
Dir  Spd
km/h
Gust
km/h
Spd
kts
Gust
kts
24/11:30pm 2.8 -0.2 1.8 93 0.4 SSE 7 9 4 5 1018.0 - 0.0
24/11:00pm 2.6 0.8 1.4 92 0.5 CALM 0 0 0 0 1018.0 - 0.0
24/10:30pm 3.0 1.2 1.3 89 0.7 CALM 0 0 0 0 1018.0 - 0.0
24/10:00pm 4.6 1.1 1.2 78 1.4 W 9 11 5 6 1017.7 - 0.0

Other Formats:

Comma delimited format used in spreadsheet applications
http://www.bom.gov.au/fwo/IDN60801/IDN60801.94541.axf

JavaScript Object Notation format (JSON) in row-major order
http://www.bom.gov.au/fwo/IDN60801/IDN60801.94541.json